createdAt,value
2023-04-08T00:02:19.015Z,2.00
2023-04-08T00:04:46.242Z,1.90
2023-04-08T00:07:13.451Z,1.90
2023-04-08T00:09:40.685Z,2.05
2023-04-08T00:12:08.383Z,2.13
2023-04-08T00:14:36.123Z,2.15
2023-04-08T00:17:03.474Z,1.88
2023-04-08T00:19:31.144Z,1.80
2023-04-08T00:21:58.865Z,2.00
2023-04-08T00:24:26.291Z,1.88
2023-04-08T00:26:53.622Z,2.03
2023-04-08T00:29:21.929Z,2.20
2023-04-08T00:31:49.462Z,2.00
2023-04-08T00:34:16.751Z,2.10
2023-04-08T00:36:44.983Z,2.00
2023-04-08T00:39:14.583Z,2.20
2023-04-08T00:41:41.983Z,2.40
2023-04-08T00:44:09.161Z,2.33
2023-04-08T00:46:39.798Z,2.00
2023-04-08T00:49:07.720Z,2.30
2023-04-08T00:51:36.591Z,2.20
2023-04-08T00:54:05.033Z,2.20
2023-04-08T00:56:33.173Z,2.15
2023-04-08T00:59:01.869Z,2.28
2023-04-08T01:01:36.622Z,2.15
2023-04-08T01:04:17.111Z,2.17
2023-04-08T01:06:56.195Z,2.00
2023-04-08T01:09:29.747Z,2.42
2023-04-08T01:12:00.641Z,2.30
2023-04-08T01:14:29.109Z,2.45
2023-04-08T01:16:59.021Z,2.35
2023-04-08T01:19:30.072Z,2.40
2023-04-08T01:22:12.854Z,2.38
2023-04-08T01:24:43.231Z,2.20
2023-04-08T01:27:11.950Z,2.42
2023-04-08T01:29:40.444Z,2.10
2023-04-08T01:32:09.831Z,2.38
2023-04-08T01:34:38.661Z,2.30
2023-04-08T01:37:08.068Z,2.22
2023-04-08T01:39:36.745Z,2.25
2023-04-08T01:42:05.065Z,2.35
2023-04-08T01:44:33.697Z,2.22
2023-04-08T01:47:02.455Z,2.75
2023-04-08T01:49:30.593Z,2.60
2023-04-08T01:52:00.728Z,2.20
2023-04-08T01:54:28.028Z,2.22
2023-04-08T01:56:57.579Z,2.70
2023-04-08T01:59:31.886Z,2.67
2023-04-08T02:02:01.082Z,2.20
2023-04-08T02:04:29.029Z,2.40
2023-04-08T02:06:57.868Z,2.45
2023-04-08T02:09:26.248Z,2.40
2023-04-08T02:11:53.647Z,2.55
2023-04-08T02:14:21.010Z,2.28
2023-04-08T02:16:52.517Z,2.20
2023-04-08T02:19:23.187Z,3.00
2023-04-08T02:21:56.076Z,2.70
2023-04-08T02:24:24.086Z,2.40
2023-04-08T02:26:52.201Z,2.42
2023-04-08T02:29:19.699Z,2.67
2023-04-08T02:31:48.695Z,2.90
2023-04-08T02:34:17.968Z,2.72
2023-04-08T02:36:47.432Z,2.65
2023-04-08T02:39:14.790Z,2.83
2023-04-08T02:41:41.888Z,3.05
2023-04-08T02:44:10.084Z,3.20
2023-04-08T02:46:41.026Z,2.75
2023-04-08T02:49:08.296Z,3.38
2023-04-08T02:51:35.436Z,2.90
2023-04-08T02:54:02.727Z,2.88
2023-04-08T02:56:29.874Z,2.72
2023-04-08T02:58:57.202Z,2.80
2023-04-08T03:01:24.880Z,2.72
2023-04-08T03:03:52.201Z,2.65
2023-04-08T03:06:19.423Z,3.20
2023-04-08T03:08:46.708Z,3.25
2023-04-08T03:11:13.862Z,2.42
2023-04-08T03:13:41.016Z,2.63
2023-04-08T03:16:08.490Z,3.10
2023-04-08T03:18:36.994Z,2.58
2023-04-08T03:21:04.313Z,2.97
2023-04-08T03:23:31.573Z,2.80
2023-04-08T03:25:58.946Z,2.40
2023-04-08T03:28:26.158Z,2.85
2023-04-08T03:30:53.393Z,3.58
2023-04-08T03:33:20.835Z,3.47
2023-04-08T03:35:48.214Z,2.92
2023-04-08T03:38:15.962Z,2.58
2023-04-08T03:40:43.098Z,2.65
2023-04-08T03:43:11.934Z,3.00
2023-04-08T03:45:39.261Z,2.70
2023-04-08T03:48:06.645Z,3.00
2023-04-08T03:50:33.936Z,2.88
2023-04-08T03:53:01.256Z,2.90
2023-04-08T03:55:28.352Z,3.15
2023-04-08T03:57:55.745Z,2.67
2023-04-08T04:00:22.916Z,2.78
2023-04-08T04:02:50.123Z,2.60
2023-04-08T04:05:17.392Z,2.88
2023-04-08T04:07:44.687Z,3.50
2023-04-08T04:10:12.101Z,3.10
2023-04-08T04:12:39.302Z,3.35
2023-04-08T04:15:07.194Z,3.00
2023-04-08T04:17:34.413Z,2.78
2023-04-08T04:20:05.291Z,3.15
2023-04-08T04:22:32.669Z,3.30
2023-04-08T04:24:59.780Z,3.20
2023-04-08T04:27:27.008Z,2.50
2023-04-08T04:29:54.235Z,2.90
2023-04-08T04:32:21.455Z,2.90
2023-04-08T04:34:48.619Z,2.65
2023-04-08T04:37:15.890Z,3.10
2023-04-08T04:39:42.972Z,2.88
2023-04-08T04:42:10.455Z,3.13
2023-04-08T04:44:37.629Z,2.88
2023-04-08T04:47:04.905Z,2.75
2023-04-08T04:49:32.190Z,2.80
2023-04-08T04:51:59.798Z,3.28
2023-04-08T04:54:26.948Z,2.83
2023-04-08T04:56:54.146Z,3.28
2023-04-08T04:59:21.311Z,2.90
2023-04-08T05:01:48.639Z,2.95
2023-04-08T05:04:15.827Z,3.20
2023-04-08T05:06:43.108Z,2.35
2023-04-08T05:09:10.377Z,3.22
2023-04-08T05:11:37.632Z,2.97
2023-04-08T05:14:04.916Z,3.15
2023-04-08T05:16:32.228Z,2.80
2023-04-08T05:18:59.594Z,3.08
2023-04-08T05:21:28.011Z,3.20
2023-04-08T05:23:55.254Z,2.47
2023-04-08T05:26:22.880Z,2.75
2023-04-08T05:28:51.902Z,2.95
2023-04-08T05:31:20.769Z,2.80
2023-04-08T05:33:48.277Z,2.83
2023-04-08T05:36:15.610Z,2.83
2023-04-08T05:38:44.434Z,2.60
2023-04-08T05:41:11.611Z,2.75
2023-04-08T05:43:38.790Z,2.80
2023-04-08T05:46:08.232Z,2.65
2023-04-08T05:48:35.725Z,3.03
2023-04-08T05:51:03.688Z,3.00
2023-04-08T05:53:30.783Z,2.95
2023-04-08T05:55:58.031Z,2.92
2023-04-08T05:58:25.305Z,3.10
2023-04-08T06:00:52.550Z,2.80
2023-04-08T06:03:20.790Z,3.13
2023-04-08T06:05:48.422Z,3.05
2023-04-08T06:08:15.865Z,2.70
2023-04-08T06:10:50.705Z,2.80
2023-04-08T06:13:18.188Z,2.85
2023-04-08T06:15:45.346Z,2.85
2023-04-08T06:18:12.635Z,2.83
2023-04-08T06:20:39.742Z,3.25
2023-04-08T06:23:07.131Z,3.03
2023-04-08T06:25:34.405Z,3.13
2023-04-08T06:28:01.819Z,3.40
2023-04-08T06:30:29.231Z,3.38
2023-04-08T06:32:57.175Z,3.20
2023-04-08T06:35:25.117Z,3.20
2023-04-08T06:37:52.337Z,2.80
2023-04-08T06:40:19.640Z,3.28
2023-04-08T06:42:46.996Z,3.20
2023-04-08T06:47:48.263Z,2.83
2023-04-08T06:50:15.460Z,3.42
2023-04-08T06:52:42.661Z,3.03
2023-04-08T06:55:09.947Z,2.60
2023-04-08T06:57:37.544Z,2.65
2023-04-08T07:00:05.339Z,2.60
2023-04-08T07:02:32.897Z,2.83
2023-04-08T07:05:00.285Z,2.97
2023-04-08T07:07:27.600Z,3.00
2023-04-08T07:09:54.683Z,3.15
2023-04-08T07:12:21.866Z,2.97
2023-04-08T07:14:49.013Z,3.28
2023-04-08T07:17:16.246Z,2.85
2023-04-08T07:19:44.153Z,2.75
2023-04-08T07:22:11.604Z,2.65
2023-04-08T07:24:38.805Z,2.92
2023-04-08T07:27:06.443Z,2.58
2023-04-08T07:29:33.685Z,2.40
2023-04-08T07:32:00.949Z,2.42
2023-04-08T07:34:28.063Z,2.63
2023-04-08T07:36:55.390Z,2.80
2023-04-08T07:39:22.461Z,2.78
2023-04-08T07:41:49.721Z,2.50
2023-04-08T07:44:17.474Z,2.40
2023-04-08T07:46:46.403Z,2.50
2023-04-08T07:49:13.660Z,2.10
2023-04-08T07:51:40.884Z,2.50
2023-04-08T07:54:08.140Z,2.70
2023-04-08T07:56:35.347Z,2.38
2023-04-08T07:59:02.608Z,2.38
2023-04-08T08:01:31.485Z,2.15
2023-04-08T08:03:59.096Z,2.60
2023-04-08T08:06:27.835Z,2.58
2023-04-08T08:08:55.017Z,2.50
2023-04-08T08:11:22.740Z,2.35
2023-04-08T08:13:50.307Z,2.50
2023-04-08T08:16:17.637Z,2.10
2023-04-08T08:18:44.890Z,2.20
2023-04-08T08:21:12.336Z,2.67
2023-04-08T08:23:39.462Z,2.35
2023-04-08T08:26:10.289Z,2.10
2023-04-08T08:28:39.231Z,2.08
2023-04-08T08:31:06.769Z,2.40
2023-04-08T08:33:34.294Z,2.30
2023-04-08T08:36:01.841Z,2.20
2023-04-08T08:38:29.030Z,2.00
2023-04-08T08:40:57.480Z,2.25
2023-04-08T08:43:26.623Z,2.22
2023-04-08T08:45:54.693Z,2.00
2023-04-08T08:48:21.993Z,1.70
2023-04-08T08:50:49.222Z,1.98
2023-04-08T08:53:16.622Z,1.80
2023-04-08T08:56:13.700Z,1.88
2023-04-08T08:58:31.473Z,1.90
2023-04-08T09:00:58.624Z,1.80
2023-04-08T09:03:28.751Z,1.77
2023-04-08T09:05:59.441Z,1.83
2023-04-08T09:08:31.078Z,1.92
2023-04-08T09:11:01.712Z,1.60
2023-04-08T09:13:37.283Z,1.60
2023-04-08T09:16:06.810Z,1.73
2023-04-08T09:18:34.259Z,1.70
2023-04-08T09:21:02.781Z,1.70
2023-04-08T09:23:40.361Z,1.67
2023-04-08T09:26:10.619Z,1.67
2023-04-08T09:28:39.084Z,1.70
2023-04-08T09:31:09.407Z,1.70
2023-04-08T09:33:36.585Z,1.40
2023-04-08T09:36:03.904Z,1.60
2023-04-08T09:38:31.179Z,1.80
2023-04-08T09:40:58.773Z,1.55
2023-04-08T09:43:26.416Z,1.67
2023-04-08T09:45:54.037Z,1.67
2023-04-08T09:48:24.742Z,1.58
2023-04-08T09:50:55.864Z,1.50
2023-04-08T09:53:30.808Z,1.80
2023-04-08T09:56:00.887Z,1.98
2023-04-08T09:58:32.873Z,1.70
2023-04-08T10:01:00.920Z,1.55
2023-04-08T10:03:34.590Z,1.80
2023-04-08T10:06:03.622Z,1.63
2023-04-08T10:08:33.068Z,1.60
2023-04-08T10:11:00.645Z,1.70
2023-04-08T10:13:28.672Z,1.88
2023-04-08T10:15:59.215Z,1.80
2023-04-08T10:18:33.508Z,1.85
2023-04-08T10:21:01.439Z,1.55
2023-04-08T10:23:59.291Z,1.88
2023-04-08T10:26:30.293Z,1.83
2023-04-08T10:29:15.445Z,1.70
2023-04-08T10:31:42.786Z,1.60
2023-04-08T10:34:13.553Z,1.70
2023-04-08T10:36:41.373Z,1.58
2023-04-08T10:39:08.531Z,1.85
2023-04-08T10:41:36.061Z,1.60
2023-04-08T10:44:04.810Z,1.60
2023-04-08T10:46:38.450Z,1.48
2023-04-08T10:49:05.861Z,1.70
2023-04-08T10:51:34.368Z,1.67
2023-04-08T10:54:04.851Z,1.60
2023-04-08T10:56:32.199Z,1.60
2023-04-08T10:59:00.228Z,1.40
2023-04-08T11:01:27.982Z,1.40
2023-04-08T11:03:55.637Z,1.80
2023-04-08T11:06:23.525Z,1.70
2023-04-08T11:08:50.723Z,1.67
2023-04-08T11:11:19.915Z,1.60
2023-04-08T11:13:52.717Z,1.60
2023-04-08T11:16:23.242Z,1.52
2023-04-08T11:18:51.805Z,1.23
2023-04-08T11:21:19.899Z,1.65
2023-04-08T11:23:51.443Z,1.50
2023-04-08T11:26:20.196Z,1.58
2023-04-08T11:28:49.329Z,1.63
2023-04-08T11:31:17.013Z,1.33
2023-04-08T11:33:47.604Z,1.42
2023-04-08T11:36:15.442Z,1.38
2023-04-08T11:38:42.761Z,1.70
2023-04-08T11:41:11.723Z,1.20
2023-04-08T11:43:41.091Z,1.40
2023-04-08T11:46:10.872Z,1.30
2023-04-08T11:48:38.744Z,1.23
2023-04-08T11:51:08.940Z,1.40
2023-04-08T11:53:38.024Z,1.48
2023-04-08T11:56:08.297Z,1.25
2023-04-08T11:58:36.122Z,1.60
2023-04-08T12:01:03.347Z,1.40
2023-04-08T12:03:31.323Z,1.63
2023-04-08T12:05:59.798Z,1.55
2023-04-08T12:08:26.954Z,1.45
2023-04-08T12:10:54.304Z,1.63
2023-04-08T12:13:21.485Z,1.27
2023-04-08T12:15:48.767Z,1.50
2023-04-08T12:18:16.613Z,1.40
2023-04-08T12:20:43.815Z,1.20
2023-04-08T12:23:11.217Z,1.30
2023-04-08T12:25:38.466Z,1.40
2023-04-08T12:28:05.595Z,1.35
2023-04-08T12:30:33.203Z,1.20
2023-04-08T12:33:00.690Z,1.10
2023-04-08T12:35:27.989Z,1.20
2023-04-08T12:37:55.462Z,1.30
2023-04-08T12:40:22.749Z,1.20
2023-04-08T12:42:49.939Z,1.38
2023-04-08T12:45:17.209Z,1.50
2023-04-08T12:47:44.381Z,1.55
2023-04-08T12:50:11.559Z,1.33
2023-04-08T12:52:38.803Z,1.42
2023-04-08T12:55:06.429Z,1.30
2023-04-08T12:57:33.703Z,1.15
2023-04-08T13:00:00.942Z,1.15
2023-04-08T13:02:28.258Z,1.33
2023-04-08T13:04:55.750Z,1.20
2023-04-08T13:07:23.825Z,1.30
2023-04-08T13:09:51.093Z,1.10
2023-04-08T13:12:18.200Z,1.38
2023-04-08T13:14:45.401Z,1.25
2023-04-08T13:17:12.498Z,1.05
2023-04-08T13:19:39.774Z,1.33
2023-04-08T13:22:07.172Z,1.00
2023-04-08T13:24:34.404Z,1.30
2023-04-08T13:27:02.754Z,1.58
2023-04-08T13:29:30.053Z,1.20
2023-04-08T13:31:57.220Z,1.65
2023-04-08T13:34:24.433Z,1.40
2023-04-08T13:36:51.662Z,1.20
2023-04-08T13:39:18.850Z,1.30
2023-04-08T13:41:46.498Z,1.13
2023-04-08T13:44:13.818Z,1.30
2023-04-08T13:46:41.143Z,1.65
2023-04-08T13:49:09.894Z,1.10
2023-04-08T13:51:37.199Z,1.20
2023-04-08T13:54:04.517Z,1.50
2023-04-08T13:56:31.644Z,1.00
2023-04-08T13:58:59.206Z,1.40
2023-04-08T14:01:26.621Z,1.10
2023-04-08T14:03:53.927Z,1.17
2023-04-08T14:06:21.139Z,1.38
2023-04-08T14:08:48.576Z,1.20
2023-04-08T14:11:15.833Z,1.23
2023-04-08T14:13:43.104Z,1.45
2023-04-08T14:16:10.331Z,1.40
2023-04-08T14:18:37.765Z,1.20
2023-04-08T14:21:05.925Z,1.20
2023-04-08T14:23:33.253Z,1.50
2023-04-08T14:26:01.704Z,1.30
2023-04-08T14:28:28.976Z,1.25
2023-04-08T14:30:56.183Z,1.13
2023-04-08T14:33:23.435Z,1.17
2023-04-08T14:35:52.598Z,1.20
2023-04-08T14:38:20.899Z,1.40
2023-04-08T14:40:48.087Z,1.27
2023-04-08T14:43:15.396Z,1.08
2023-04-08T14:45:42.582Z,1.15
2023-04-08T14:48:09.813Z,1.15
2023-04-08T14:50:37.246Z,1.30
2023-04-08T14:53:04.645Z,1.23
2023-04-08T14:55:32.589Z,1.40
2023-04-08T14:58:01.087Z,1.40
2023-04-08T15:00:28.597Z,1.50
2023-04-08T15:02:55.988Z,1.30
2023-04-08T15:05:23.408Z,1.55
2023-04-08T15:07:51.141Z,1.40
2023-04-08T15:10:18.257Z,1.15
2023-04-08T15:12:45.786Z,1.15
2023-04-08T15:15:12.956Z,1.20
2023-04-08T15:17:40.327Z,1.38
2023-04-08T15:20:08.265Z,1.38
2023-04-08T15:22:35.616Z,1.65
2023-04-08T15:25:05.109Z,1.45
2023-04-08T15:27:33.105Z,1.45
2023-04-08T15:30:00.474Z,1.30
2023-04-08T15:32:27.731Z,1.30
2023-04-08T15:34:54.995Z,1.25
2023-04-08T15:37:23.083Z,1.67
2023-04-08T15:39:50.339Z,1.23
2023-04-08T15:42:17.685Z,1.35
2023-04-08T15:44:44.824Z,1.20
2023-04-08T15:47:12.386Z,1.17
2023-04-08T15:49:40.426Z,1.33
2023-04-08T15:52:07.619Z,1.50
2023-04-08T15:54:35.343Z,1.50
2023-04-08T15:57:02.806Z,1.30
2023-04-08T15:59:30.756Z,1.27
2023-04-08T16:01:58.924Z,1.40
2023-04-08T16:04:26.347Z,1.30
2023-04-08T16:06:53.642Z,1.33
2023-04-08T16:09:25.870Z,1.35
2023-04-08T16:11:53.832Z,1.25
2023-04-08T16:14:21.428Z,1.40
2023-04-08T16:16:49.329Z,1.55
2023-04-08T16:19:16.741Z,1.50
2023-04-08T16:21:44.378Z,1.42
2023-04-08T16:24:11.661Z,1.33
2023-04-08T16:26:38.981Z,1.42
2023-04-08T16:29:06.266Z,1.42
2023-04-08T16:31:33.693Z,1.40
2023-04-08T16:34:00.913Z,1.25
2023-04-08T16:36:28.115Z,1.40
2023-04-08T16:38:55.456Z,1.30
2023-04-08T16:41:22.734Z,1.33
2023-04-08T16:43:50.082Z,1.60
2023-04-08T16:46:18.635Z,1.40
2023-04-08T16:48:46.624Z,1.50
2023-04-08T16:51:13.998Z,1.33
2023-04-08T16:53:41.224Z,1.48
2023-04-08T16:56:11.594Z,1.60
2023-04-08T16:58:38.896Z,1.38
2023-04-08T17:01:08.628Z,1.30
2023-04-08T17:03:36.540Z,1.52
2023-04-08T17:06:06.128Z,1.40
2023-04-08T17:08:33.621Z,1.55
2023-04-08T17:11:04.456Z,1.55
2023-04-08T17:13:32.529Z,1.48
2023-04-08T17:15:59.947Z,1.48
2023-04-08T17:18:27.331Z,1.45
2023-04-08T17:20:54.497Z,1.25
2023-04-08T17:23:21.880Z,1.48
2023-04-08T17:25:49.438Z,1.60
2023-04-08T17:28:17.059Z,1.80
2023-04-08T17:30:44.547Z,1.63
2023-04-08T17:33:11.939Z,1.65
2023-04-08T17:35:39.120Z,1.80
2023-04-08T17:38:06.368Z,1.38
2023-04-08T17:40:33.848Z,1.58
2023-04-08T17:43:01.753Z,1.50
2023-04-08T17:45:28.910Z,1.50
2023-04-08T17:47:59.017Z,1.60
2023-04-08T17:50:26.377Z,1.30
2023-04-08T17:52:53.556Z,1.30
2023-04-08T17:55:21.040Z,1.50
2023-04-08T17:57:49.790Z,1.38
2023-04-08T18:00:17.325Z,1.40
2023-04-08T18:02:44.817Z,1.35
2023-04-08T18:05:12.357Z,1.60
2023-04-08T18:07:39.565Z,1.40
2023-04-08T18:10:07.659Z,1.60
2023-04-08T18:12:34.876Z,1.63
2023-04-08T18:15:02.078Z,1.55
2023-04-08T18:17:29.499Z,1.67
2023-04-08T18:19:58.586Z,1.60
2023-04-08T18:22:25.835Z,1.50
2023-04-08T18:24:53.161Z,1.80
2023-04-08T18:27:20.406Z,1.77
2023-04-08T18:29:47.572Z,1.80
2023-04-08T18:32:14.906Z,1.70
2023-04-08T18:34:41.987Z,1.80
2023-04-08T18:37:11.139Z,1.50
2023-04-08T18:39:40.679Z,1.92
2023-04-08T18:42:07.836Z,1.55
2023-04-08T18:44:34.967Z,1.60
2023-04-08T18:47:02.539Z,1.80
2023-04-08T18:49:31.000Z,1.85
2023-04-08T18:52:03.240Z,1.67
2023-04-08T18:54:30.911Z,1.70
2023-04-08T18:56:58.596Z,1.60
2023-04-08T18:59:28.430Z,1.55
2023-04-08T19:01:56.116Z,1.80
2023-04-08T19:04:23.649Z,1.90
2023-04-08T19:06:50.947Z,1.90
2023-04-08T19:09:18.282Z,2.10
2023-04-08T19:11:45.586Z,2.00
2023-04-08T19:14:12.854Z,1.92
2023-04-08T19:16:41.430Z,1.98
2023-04-08T19:19:09.098Z,2.10
2023-04-08T19:21:37.965Z,1.90
2023-04-08T19:24:06.460Z,2.08
2023-04-08T19:26:33.971Z,2.25
2023-04-08T19:29:01.446Z,1.90
2023-04-08T19:31:29.027Z,2.30
2023-04-08T19:33:56.382Z,2.30
2023-04-08T19:36:23.576Z,2.10
2023-04-08T19:38:51.334Z,2.50
2023-04-08T19:41:18.550Z,2.38
2023-04-08T19:43:47.280Z,2.40
2023-04-08T19:46:14.629Z,2.15
2023-04-08T19:48:41.935Z,2.10
2023-04-08T19:51:09.081Z,2.50
2023-04-08T19:53:36.429Z,2.50
2023-04-08T19:56:03.592Z,2.22
2023-04-08T19:58:30.950Z,2.22
2023-04-08T20:00:58.190Z,2.40
2023-04-08T20:03:25.977Z,2.30
2023-04-08T20:05:53.388Z,2.60
2023-04-08T20:08:20.794Z,2.53
2023-04-08T20:10:49.560Z,2.30
2023-04-08T20:13:16.940Z,2.60
2023-04-08T20:15:45.343Z,2.67
2023-04-08T20:18:13.962Z,2.70
2023-04-08T20:20:41.714Z,2.38
2023-04-08T20:23:08.964Z,2.70
2023-04-08T20:25:36.126Z,2.80
2023-04-08T20:28:03.397Z,2.42
2023-04-08T20:30:30.738Z,2.45
2023-04-08T20:32:58.176Z,2.63
2023-04-08T20:35:26.198Z,2.70
2023-04-08T20:37:53.830Z,2.70
2023-04-08T20:40:21.139Z,2.70
2023-04-08T20:42:48.429Z,2.50
2023-04-08T20:45:15.667Z,2.63
2023-04-08T20:47:46.113Z,2.22
2023-04-08T20:50:13.526Z,2.40
2023-04-08T20:52:40.933Z,2.60
2023-04-08T20:55:08.570Z,2.50
2023-04-08T20:57:35.863Z,2.17
2023-04-08T21:00:05.919Z,2.40
2023-04-08T21:02:33.844Z,2.47
2023-04-08T21:05:01.260Z,2.72
2023-04-08T21:07:28.607Z,2.15
2023-04-08T21:09:55.835Z,2.88
2023-04-08T21:12:23.113Z,2.25
2023-04-08T21:14:50.973Z,2.50
2023-04-08T21:17:18.215Z,2.50
2023-04-08T21:19:46.729Z,2.50
2023-04-08T21:22:14.158Z,2.58
2023-04-08T21:24:41.385Z,2.60
2023-04-08T21:27:08.639Z,2.45
2023-04-08T21:29:36.116Z,2.83
2023-04-08T21:32:03.370Z,2.83
2023-04-08T21:34:31.168Z,3.10
2023-04-08T21:36:58.525Z,2.55
2023-04-08T21:39:25.763Z,2.53
2023-04-08T21:41:53.038Z,2.53
2023-04-08T21:44:20.246Z,2.70
2023-04-08T21:46:49.336Z,2.88
2023-04-08T21:49:16.696Z,2.80
2023-04-08T21:51:43.976Z,3.03
2023-04-08T21:54:11.154Z,2.83
2023-04-08T21:56:38.663Z,2.75
2023-04-08T21:59:05.930Z,3.17
2023-04-08T22:01:33.532Z,2.75
2023-04-08T22:04:01.009Z,2.47
2023-04-08T22:06:32.497Z,2.60
2023-04-08T22:09:00.311Z,2.60
2023-04-08T22:11:27.599Z,2.92
2023-04-08T22:13:54.916Z,2.83
2023-04-08T22:16:22.231Z,2.70
2023-04-08T22:18:49.623Z,2.80
2023-04-08T22:21:16.953Z,2.78
2023-04-08T22:23:44.295Z,2.53
2023-04-08T22:26:11.685Z,2.75
2023-04-08T22:28:39.075Z,2.70
2023-04-08T22:31:11.022Z,3.00
2023-04-08T22:33:39.203Z,2.80
2023-04-08T22:36:06.806Z,3.00
2023-04-08T22:38:34.709Z,2.65
2023-04-08T22:41:01.839Z,3.05
2023-04-08T22:43:29.257Z,2.90
2023-04-08T22:45:56.518Z,3.00
2023-04-08T22:48:23.769Z,2.67
2023-04-08T22:50:51.576Z,2.90
2023-04-08T22:53:18.810Z,2.90
2023-04-08T22:55:46.037Z,2.80
2023-04-08T22:58:13.376Z,2.85
2023-04-08T23:00:40.781Z,2.97
2023-04-08T23:03:07.998Z,2.95
2023-04-08T23:05:35.230Z,3.03
2023-04-08T23:08:02.587Z,2.83
2023-04-08T23:10:29.695Z,2.80
2023-04-08T23:12:56.986Z,3.10
2023-04-08T23:15:24.188Z,2.63
2023-04-08T23:17:51.499Z,2.72
2023-04-08T23:20:18.785Z,3.00
2023-04-08T23:22:46.118Z,3.25
2023-04-08T23:25:13.426Z,2.50
2023-04-08T23:27:40.974Z,2.75
2023-04-08T23:30:08.635Z,3.33
2023-04-08T23:32:36.196Z,3.00
2023-04-08T23:35:03.747Z,3.30
2023-04-08T23:37:31.221Z,3.22
2023-04-08T23:39:58.319Z,2.70
2023-04-08T23:42:27.452Z,3.00
2023-04-08T23:44:54.995Z,3.10
2023-04-08T23:47:22.568Z,2.88
2023-04-08T23:49:49.798Z,3.10
2023-04-08T23:52:17.012Z,3.08
2023-04-08T23:54:44.187Z,3.00
2023-04-08T23:57:11.568Z,3.30
2023-04-08T23:59:38.809Z,3.13
